sensor_id;sensor_type;location;lat;lon;timestamp;temperature;humidity
53978;DHT22;39886;47.984;-1.586;2022-10-16T00:01:29;19.50;79.60
53978;DHT22;39886;47.984;-1.586;2022-10-16T00:03:57;19.50;79.60
53978;DHT22;39886;47.984;-1.586;2022-10-16T00:06:23;19.50;79.60
53978;DHT22;39886;47.984;-1.586;2022-10-16T00:08:50;19.50;79.60
53978;DHT22;39886;47.984;-1.586;2022-10-16T00:11:21;19.40;79.50
53978;DHT22;39886;47.984;-1.586;2022-10-16T00:13:49;19.50;80.20
53978;DHT22;39886;47.984;-1.586;2022-10-16T00:16:16;19.50;79.60
53978;DHT22;39886;47.984;-1.586;2022-10-16T00:18:42;19.50;79.60
53978;DHT22;39886;47.984;-1.586;2022-10-16T00:21:14;19.40;79.50
53978;DHT22;39886;47.984;-1.586;2022-10-16T00:23:40;19.50;79.60
53978;DHT22;39886;47.984;-1.586;2022-10-16T00:26:12;19.40;79.50
53978;DHT22;39886;47.984;-1.586;2022-10-16T00:28:38;19.40;79.60
53978;DHT22;39886;47.984;-1.586;2022-10-16T00:31:09;19.50;79.60
53978;DHT22;39886;47.984;-1.586;2022-10-16T00:33:36;19.40;79.60
53978;DHT22;39886;47.984;-1.586;2022-10-16T00:36:04;19.40;79.60
53978;DHT22;39886;47.984;-1.586;2022-10-16T00:38:31;19.40;79.60
53978;DHT22;39886;47.984;-1.586;2022-10-16T00:40:57;19.40;79.60
53978;DHT22;39886;47.984;-1.586;2022-10-16T00:46:00;19.40;79.60
53978;DHT22;39886;47.984;-1.586;2022-10-16T00:48:29;19.40;79.60
53978;DHT22;39886;47.984;-1.586;2022-10-16T00:50:56;19.40;79.50
53978;DHT22;39886;47.984;-1.586;2022-10-16T00:53:24;19.50;79.60
53978;DHT22;39886;47.984;-1.586;2022-10-16T00:55:51;19.50;79.60
53978;DHT22;39886;47.984;-1.586;2022-10-16T00:58:17;19.50;79.60
53978;DHT22;39886;47.984;-1.586;2022-10-16T01:00:43;19.40;79.50
53978;DHT22;39886;47.984;-1.586;2022-10-16T01:03:29;19.40;79.50
53978;DHT22;39886;47.984;-1.586;2022-10-16T01:09:17;19.40;79.50
53978;DHT22;39886;47.984;-1.586;2022-10-16T01:14:56;19.40;79.60
53978;DHT22;39886;47.984;-1.586;2022-10-16T01:17:41;19.40;79.60
53978;DHT22;39886;47.984;-1.586;2022-10-16T01:20:27;19.40;79.50
53978;DHT22;39886;47.984;-1.586;2022-10-16T01:28:17;19.40;79.60
53978;DHT22;39886;47.984;-1.586;2022-10-16T01:30:45;19.40;79.60
53978;DHT22;39886;47.984;-1.586;2022-10-16T01:33:19;19.40;79.60
53978;DHT22;39886;47.984;-1.586;2022-10-16T01:35:48;19.40;79.60
53978;DHT22;39886;47.984;-1.586;2022-10-16T01:38:19;19.40;79.50
53978;DHT22;39886;47.984;-1.586;2022-10-16T01:40:50;19.40;79.60
53978;DHT22;39886;47.984;-1.586;2022-10-16T01:43:21;19.40;79.60
53978;DHT22;39886;47.984;-1.586;2022-10-16T01:45:48;19.40;79.50
53978;DHT22;39886;47.984;-1.586;2022-10-16T01:48:18;19.40;79.50
53978;DHT22;39886;47.984;-1.586;2022-10-16T01:50:54;19.40;79.50
53978;DHT22;39886;47.984;-1.586;2022-10-16T01:53:22;19.40;79.50
53978;DHT22;39886;47.984;-1.586;2022-10-16T01:55:48;19.40;79.50
53978;DHT22;39886;47.984;-1.586;2022-10-16T01:58:15;19.40;79.50
53978;DHT22;39886;47.984;-1.586;2022-10-16T02:00:44;19.40;79.50
53978;DHT22;39886;47.984;-1.586;2022-10-16T02:03:13;19.40;79.50
53978;DHT22;39886;47.984;-1.586;2022-10-16T02:08:08;19.40;79.60
53978;DHT22;39886;47.984;-1.586;2022-10-16T02:10:35;19.40;79.50
53978;DHT22;39886;47.984;-1.586;2022-10-16T02:13:20;19.40;79.50
53978;DHT22;39886;47.984;-1.586;2022-10-16T02:15:47;19.40;79.50
53978;DHT22;39886;47.984;-1.586;2022-10-16T02:18:13;19.40;79.50
53978;DHT22;39886;47.984;-1.586;2022-10-16T02:21:06;19.40;79.50
53978;DHT22;39886;47.984;-1.586;2022-10-16T02:24:31;19.40;79.50
53978;DHT22;39886;47.984;-1.586;2022-10-16T02:26:46;19.40;79.50
53978;DHT22;39886;47.984;-1.586;2022-10-16T02:29:17;19.40;79.50
53978;DHT22;39886;47.984;-1.586;2022-10-16T02:31:49;19.40;79.60
53978;DHT22;39886;47.984;-1.586;2022-10-16T02:34:18;19.40;79.50
53978;DHT22;39886;47.984;-1.586;2022-10-16T02:36:45;19.40;79.50
53978;DHT22;39886;47.984;-1.586;2022-10-16T02:39:11;19.40;79.50
53978;DHT22;39886;47.984;-1.586;2022-10-16T02:41:37;19.40;79.50
53978;DHT22;39886;47.984;-1.586;2022-10-16T02:44:03;19.40;79.50
53978;DHT22;39886;47.984;-1.586;2022-10-16T02:46:29;19.40;79.50
53978;DHT22;39886;47.984;-1.586;2022-10-16T02:48:55;19.40;79.50
53978;DHT22;39886;47.984;-1.586;2022-10-16T02:51:21;19.40;79.50
53978;DHT22;39886;47.984;-1.586;2022-10-16T02:53:46;19.30;79.40
53978;DHT22;39886;47.984;-1.586;2022-10-16T02:56:12;19.40;79.50
53978;DHT22;39886;47.984;-1.586;2022-10-16T02:58:38;19.40;79.50
53978;DHT22;39886;47.984;-1.586;2022-10-16T03:01:03;19.30;79.50
53978;DHT22;39886;47.984;-1.586;2022-10-16T03:03:29;19.40;79.50
53978;DHT22;39886;47.984;-1.586;2022-10-16T03:05:55;19.30;79.50
53978;DHT22;39886;47.984;-1.586;2022-10-16T03:08:21;19.40;79.50
53978;DHT22;39886;47.984;-1.586;2022-10-16T03:10:49;19.40;79.50
53978;DHT22;39886;47.984;-1.586;2022-10-16T03:13:15;19.40;79.50
53978;DHT22;39886;47.984;-1.586;2022-10-16T03:15:41;19.40;79.50
53978;DHT22;39886;47.984;-1.586;2022-10-16T03:18:07;19.40;79.50
53978;DHT22;39886;47.984;-1.586;2022-10-16T03:20:32;19.30;79.50
53978;DHT22;39886;47.984;-1.586;2022-10-16T03:22:58;19.30;79.50
53978;DHT22;39886;47.984;-1.586;2022-10-16T03:25:24;19.30;79.50
53978;DHT22;39886;47.984;-1.586;2022-10-16T03:27:50;19.40;79.50
53978;DHT22;39886;47.984;-1.586;2022-10-16T03:30:16;19.30;79.50
53978;DHT22;39886;47.984;-1.586;2022-10-16T03:32:43;19.30;79.50
53978;DHT22;39886;47.984;-1.586;2022-10-16T03:35:10;19.30;79.40
53978;DHT22;39886;47.984;-1.586;2022-10-16T03:37:35;19.30;79.40
53978;DHT22;39886;47.984;-1.586;2022-10-16T03:40:02;19.30;79.50
53978;DHT22;39886;47.984;-1.586;2022-10-16T03:42:28;19.30;79.40
53978;DHT22;39886;47.984;-1.586;2022-10-16T03:44:53;19.30;79.40
53978;DHT22;39886;47.984;-1.586;2022-10-16T03:47:19;19.30;79.40
53978;DHT22;39886;47.984;-1.586;2022-10-16T03:49:47;19.30;79.40
53978;DHT22;39886;47.984;-1.586;2022-10-16T03:52:13;19.30;79.40
53978;DHT22;39886;47.984;-1.586;2022-10-16T03:54:39;19.30;79.40
53978;DHT22;39886;47.984;-1.586;2022-10-16T03:57:05;19.30;79.40
53978;DHT22;39886;47.984;-1.586;2022-10-16T03:59:31;19.30;79.40
53978;DHT22;39886;47.984;-1.586;2022-10-16T04:01:56;19.30;79.40
53978;DHT22;39886;47.984;-1.586;2022-10-16T04:04:22;19.30;79.40
53978;DHT22;39886;47.984;-1.586;2022-10-16T04:06:48;19.30;79.40
53978;DHT22;39886;47.984;-1.586;2022-10-16T04:09:14;19.30;79.40
53978;DHT22;39886;47.984;-1.586;2022-10-16T04:11:39;19.30;79.40
53978;DHT22;39886;47.984;-1.586;2022-10-16T04:14:05;19.30;79.40
53978;DHT22;39886;47.984;-1.586;2022-10-16T04:16:31;19.30;79.40
53978;DHT22;39886;47.984;-1.586;2022-10-16T04:18:57;19.30;79.50
53978;DHT22;39886;47.984;-1.586;2022-10-16T04:21:22;19.30;79.40
53978;DHT22;39886;47.984;-1.586;2022-10-16T04:23:48;19.30;79.40
53978;DHT22;39886;47.984;-1.586;2022-10-16T04:26:14;19.30;79.50
53978;DHT22;39886;47.984;-1.586;2022-10-16T04:28:40;19.30;79.40
53978;DHT22;39886;47.984;-1.586;2022-10-16T04:31:06;19.30;79.40
53978;DHT22;39886;47.984;-1.586;2022-10-16T04:33:33;19.30;79.40
53978;DHT22;39886;47.984;-1.586;2022-10-16T04:35:59;19.30;79.40
53978;DHT22;39886;47.984;-1.586;2022-10-16T04:38:25;19.30;79.40
53978;DHT22;39886;47.984;-1.586;2022-10-16T04:40:52;19.30;79.40
53978;DHT22;39886;47.984;-1.586;2022-10-16T04:43:18;19.30;79.40
53978;DHT22;39886;47.984;-1.586;2022-10-16T04:45:44;19.30;79.40
53978;DHT22;39886;47.984;-1.586;2022-10-16T04:48:10;19.30;79.40
53978;DHT22;39886;47.984;-1.586;2022-10-16T04:50:36;19.30;79.40
53978;DHT22;39886;47.984;-1.586;2022-10-16T04:53:02;19.30;79.40
53978;DHT22;39886;47.984;-1.586;2022-10-16T04:55:27;19.30;79.40
53978;DHT22;39886;47.984;-1.586;2022-10-16T04:57:53;19.30;79.40
53978;DHT22;39886;47.984;-1.586;2022-10-16T05:00:19;19.30;79.40
53978;DHT22;39886;47.984;-1.586;2022-10-16T05:02:45;19.30;79.40
53978;DHT22;39886;47.984;-1.586;2022-10-16T05:05:10;19.30;79.40
53978;DHT22;39886;47.984;-1.586;2022-10-16T05:07:37;19.30;79.40
53978;DHT22;39886;47.984;-1.586;2022-10-16T05:10:03;19.30;79.40
53978;DHT22;39886;47.984;-1.586;2022-10-16T05:12:28;19.30;79.40
53978;DHT22;39886;47.984;-1.586;2022-10-16T05:14:54;19.30;79.40
53978;DHT22;39886;47.984;-1.586;2022-10-16T05:17:24;19.30;79.40
53978;DHT22;39886;47.984;-1.586;2022-10-16T05:19:50;19.30;79.40
53978;DHT22;39886;47.984;-1.586;2022-10-16T05:22:16;19.30;79.40
53978;DHT22;39886;47.984;-1.586;2022-10-16T05:24:42;19.30;79.40
53978;DHT22;39886;47.984;-1.586;2022-10-16T05:27:08;19.30;79.40
53978;DHT22;39886;47.984;-1.586;2022-10-16T05:29:33;19.30;79.40
53978;DHT22;39886;47.984;-1.586;2022-10-16T05:32:00;19.30;79.40
53978;DHT22;39886;47.984;-1.586;2022-10-16T05:34:26;19.30;79.40
53978;DHT22;39886;47.984;-1.586;2022-10-16T05:36:52;19.30;79.40
53978;DHT22;39886;47.984;-1.586;2022-10-16T05:39:17;19.30;79.40
53978;DHT22;39886;47.984;-1.586;2022-10-16T05:41:43;19.30;79.40
53978;DHT22;39886;47.984;-1.586;2022-10-16T05:44:09;19.30;79.40
53978;DHT22;39886;47.984;-1.586;2022-10-16T05:46:35;19.30;79.40
53978;DHT22;39886;47.984;-1.586;2022-10-16T05:49:01;19.30;79.40
53978;DHT22;39886;47.984;-1.586;2022-10-16T05:51:26;19.30;79.40
53978;DHT22;39886;47.984;-1.586;2022-10-16T05:53:52;19.30;79.40
53978;DHT22;39886;47.984;-1.586;2022-10-16T05:56:18;19.30;79.30
53978;DHT22;39886;47.984;-1.586;2022-10-16T05:58:44;19.30;79.30
53978;DHT22;39886;47.984;-1.586;2022-10-16T06:01:15;19.30;79.30
53978;DHT22;39886;47.984;-1.586;2022-10-16T06:03:41;19.30;79.30
53978;DHT22;39886;47.984;-1.586;2022-10-16T06:06:15;19.30;79.30
53978;DHT22;39886;47.984;-1.586;2022-10-16T06:08:42;19.30;79.30
53978;DHT22;39886;47.984;-1.586;2022-10-16T06:11:10;19.30;79.30
53978;DHT22;39886;47.984;-1.586;2022-10-16T06:13:36;19.30;79.30
53978;DHT22;39886;47.984;-1.586;2022-10-16T06:16:03;19.30;79.30
53978;DHT22;39886;47.984;-1.586;2022-10-16T06:18:29;19.30;79.30
53978;DHT22;39886;47.984;-1.586;2022-10-16T06:20:56;19.30;79.30
53978;DHT22;39886;47.984;-1.586;2022-10-16T06:23:22;19.30;79.40
53978;DHT22;39886;47.984;-1.586;2022-10-16T06:25:48;19.30;79.20
53978;DHT22;39886;47.984;-1.586;2022-10-16T06:28:14;19.30;79.30
53978;DHT22;39886;47.984;-1.586;2022-10-16T06:30:40;19.30;79.30
53978;DHT22;39886;47.984;-1.586;2022-10-16T06:33:06;19.30;79.20
53978;DHT22;39886;47.984;-1.586;2022-10-16T06:35:31;19.30;79.30
53978;DHT22;39886;47.984;-1.586;2022-10-16T06:37:58;19.30;79.20
53978;DHT22;39886;47.984;-1.586;2022-10-16T06:40:24;19.30;79.30
53978;DHT22;39886;47.984;-1.586;2022-10-16T06:42:49;19.30;79.30
53978;DHT22;39886;47.984;-1.586;2022-10-16T06:45:17;19.30;79.30
53978;DHT22;39886;47.984;-1.586;2022-10-16T06:47:43;19.30;79.30
53978;DHT22;39886;47.984;-1.586;2022-10-16T06:50:09;19.30;79.20
53978;DHT22;39886;47.984;-1.586;2022-10-16T06:52:34;19.30;79.20
53978;DHT22;39886;47.984;-1.586;2022-10-16T06:55:00;19.30;79.20
53978;DHT22;39886;47.984;-1.586;2022-10-16T06:57:26;19.30;79.30
53978;DHT22;39886;47.984;-1.586;2022-10-16T06:59:52;19.30;79.20
53978;DHT22;39886;47.984;-1.586;2022-10-16T07:02:18;19.30;79.20
53978;DHT22;39886;47.984;-1.586;2022-10-16T07:04:43;19.30;79.20
53978;DHT22;39886;47.984;-1.586;2022-10-16T07:07:09;19.30;79.20
53978;DHT22;39886;47.984;-1.586;2022-10-16T07:09:35;19.30;79.20
53978;DHT22;39886;47.984;-1.586;2022-10-16T07:12:01;19.30;79.20
53978;DHT22;39886;47.984;-1.586;2022-10-16T07:14:26;19.30;79.20
53978;DHT22;39886;47.984;-1.586;2022-10-16T07:16:53;19.30;79.20
53978;DHT22;39886;47.984;-1.586;2022-10-16T07:19:18;19.30;79.20
53978;DHT22;39886;47.984;-1.586;2022-10-16T07:21:44;19.30;79.20
53978;DHT22;39886;47.984;-1.586;2022-10-16T07:24:15;19.30;79.20
53978;DHT22;39886;47.984;-1.586;2022-10-16T07:26:42;19.30;79.10
53978;DHT22;39886;47.984;-1.586;2022-10-16T07:29:27;19.30;79.10
53978;DHT22;39886;47.984;-1.586;2022-10-16T07:31:53;19.30;79.10
53978;DHT22;39886;47.984;-1.586;2022-10-16T07:34:19;19.30;79.10
53978;DHT22;39886;47.984;-1.586;2022-10-16T07:36:50;19.30;79.10
53978;DHT22;39886;47.984;-1.586;2022-10-16T07:39:16;19.30;79.10
53978;DHT22;39886;47.984;-1.586;2022-10-16T07:41:42;19.30;79.10
53978;DHT22;39886;47.984;-1.586;2022-10-16T07:44:08;19.30;79.10
53978;DHT22;39886;47.984;-1.586;2022-10-16T07:46:35;19.30;79.10
53978;DHT22;39886;47.984;-1.586;2022-10-16T07:49:02;19.30;79.10
53978;DHT22;39886;47.984;-1.586;2022-10-16T07:51:28;19.30;79.70
53978;DHT22;39886;47.984;-1.586;2022-10-16T07:53:54;19.40;79.10
53978;DHT22;39886;47.984;-1.586;2022-10-16T07:56:21;19.40;79.10
53978;DHT22;39886;47.984;-1.586;2022-10-16T07:58:47;19.40;79.10
53978;DHT22;39886;47.984;-1.586;2022-10-16T08:01:15;19.40;79.00
53978;DHT22;39886;47.984;-1.586;2022-10-16T08:03:42;19.40;79.00
53978;DHT22;39886;47.984;-1.586;2022-10-16T08:06:08;19.40;79.00
53978;DHT22;39886;47.984;-1.586;2022-10-16T08:08:34;19.40;79.00
53978;DHT22;39886;47.984;-1.586;2022-10-16T08:11:00;19.40;79.00
53978;DHT22;39886;47.984;-1.586;2022-10-16T08:13:29;19.40;78.90
53978;DHT22;39886;47.984;-1.586;2022-10-16T08:15:55;19.50;79.00
53978;DHT22;39886;47.984;-1.586;2022-10-16T08:18:21;19.40;78.80
53978;DHT22;39886;47.984;-1.586;2022-10-16T08:20:47;19.40;78.80
53978;DHT22;39886;47.984;-1.586;2022-10-16T08:23:12;19.40;78.80
53978;DHT22;39886;47.984;-1.586;2022-10-16T08:25:39;19.50;78.80
53978;DHT22;39886;47.984;-1.586;2022-10-16T08:28:06;19.50;78.80
53978;DHT22;39886;47.984;-1.586;2022-10-16T08:30:33;19.50;78.80
53978;DHT22;39886;47.984;-1.586;2022-10-16T08:32:58;19.50;78.80
53978;DHT22;39886;47.984;-1.586;2022-10-16T08:35:24;19.50;78.70
53978;DHT22;39886;47.984;-1.586;2022-10-16T08:37:50;19.50;78.70
53978;DHT22;39886;47.984;-1.586;2022-10-16T08:40:17;19.50;78.60
53978;DHT22;39886;47.984;-1.586;2022-10-16T08:45:40;19.60;78.60
53978;DHT22;39886;47.984;-1.586;2022-10-16T08:50:50;19.60;78.60
53978;DHT22;39886;47.984;-1.586;2022-10-16T08:53:59;19.60;78.60
53978;DHT22;39886;47.984;-1.586;2022-10-16T08:56:25;19.60;78.50
53978;DHT22;39886;47.984;-1.586;2022-10-16T08:58:52;19.60;78.50
53978;DHT22;39886;47.984;-1.586;2022-10-16T09:01:20;19.60;78.50
53978;DHT22;39886;47.984;-1.586;2022-10-16T09:07:01;19.70;78.50
53978;DHT22;39886;47.984;-1.586;2022-10-16T09:17:32;19.70;78.40
53978;DHT22;39886;47.984;-1.586;2022-10-16T09:20:38;19.70;78.30
53978;DHT22;39886;47.984;-1.586;2022-10-16T09:23:17;19.70;78.30
53978;DHT22;39886;47.984;-1.586;2022-10-16T09:25:48;19.70;78.20
53978;DHT22;39886;47.984;-1.586;2022-10-16T09:28:16;19.70;78.20
53978;DHT22;39886;47.984;-1.586;2022-10-16T09:30:42;19.70;78.20
53978;DHT22;39886;47.984;-1.586;2022-10-16T09:33:09;19.80;78.20
53978;DHT22;39886;47.984;-1.586;2022-10-16T09:35:48;19.80;78.10
53978;DHT22;39886;47.984;-1.586;2022-10-16T09:40:48;19.80;78.10
53978;DHT22;39886;47.984;-1.586;2022-10-16T09:43:23;19.80;78.10
53978;DHT22;39886;47.984;-1.586;2022-10-16T09:45:58;19.80;78.00
53978;DHT22;39886;47.984;-1.586;2022-10-16T09:48:28;19.80;78.00
53978;DHT22;39886;47.984;-1.586;2022-10-16T09:51:01;19.80;78.00
53978;DHT22;39886;47.984;-1.586;2022-10-16T09:53:42;19.80;78.00
53978;DHT22;39886;47.984;-1.586;2022-10-16T09:56:20;19.80;77.90
53978;DHT22;39886;47.984;-1.586;2022-10-16T09:58:51;19.80;77.90
53978;DHT22;39886;47.984;-1.586;2022-10-16T10:01:18;19.80;77.90
53978;DHT22;39886;47.984;-1.586;2022-10-16T10:03:45;19.80;77.80
53978;DHT22;39886;47.984;-1.586;2022-10-16T10:06:26;19.90;77.80
53978;DHT22;39886;47.984;-1.586;2022-10-16T10:16:50;19.90;77.70
53978;DHT22;39886;47.984;-1.586;2022-10-16T10:19:20;19.90;77.70
53978;DHT22;39886;47.984;-1.586;2022-10-16T10:21:46;19.90;77.60
53978;DHT22;39886;47.984;-1.586;2022-10-16T10:24:16;19.90;77.60
53978;DHT22;39886;47.984;-1.586;2022-10-16T10:45:48;19.90;77.50
53978;DHT22;39886;47.984;-1.586;2022-10-16T10:58:53;19.90;77.50
53978;DHT22;39886;47.984;-1.586;2022-10-16T11:07:15;19.90;77.50
53978;DHT22;39886;47.984;-1.586;2022-10-16T11:09:53;19.90;77.50
53978;DHT22;39886;47.984;-1.586;2022-10-16T11:12:27;19.90;77.50
53978;DHT22;39886;47.984;-1.586;2022-10-16T11:15:07;19.90;77.50
53978;DHT22;39886;47.984;-1.586;2022-10-16T11:17:53;19.90;78.20
53978;DHT22;39886;47.984;-1.586;2022-10-16T11:20:24;19.90;77.50
53978;DHT22;39886;47.984;-1.586;2022-10-16T11:23:02;19.90;77.50
53978;DHT22;39886;47.984;-1.586;2022-10-16T11:25:32;19.90;77.50
53978;DHT22;39886;47.984;-1.586;2022-10-16T11:28:11;19.90;77.50
53978;DHT22;39886;47.984;-1.586;2022-10-16T11:30:59;19.90;77.50
53978;DHT22;39886;47.984;-1.586;2022-10-16T11:39:34;19.90;77.50
53978;DHT22;39886;47.984;-1.586;2022-10-16T11:41:50;19.90;77.50
53978;DHT22;39886;47.984;-1.586;2022-10-16T11:47:01;19.80;77.50
53978;DHT22;39886;47.984;-1.586;2022-10-16T11:49:31;19.80;77.50
53978;DHT22;39886;47.984;-1.586;2022-10-16T11:52:06;19.80;77.50
53978;DHT22;39886;47.984;-1.586;2022-10-16T11:54:38;19.80;77.50
53978;DHT22;39886;47.984;-1.586;2022-10-16T11:57:16;19.80;77.50
53978;DHT22;39886;47.984;-1.586;2022-10-16T11:59:57;19.80;77.50
53978;DHT22;39886;47.984;-1.586;2022-10-16T12:10:50;19.80;77.50
53978;DHT22;39886;47.984;-1.586;2022-10-16T12:18:37;19.80;77.40
53978;DHT22;39886;47.984;-1.586;2022-10-16T12:21:03;19.80;77.40
53978;DHT22;39886;47.984;-1.586;2022-10-16T12:23:37;19.80;77.50
53978;DHT22;39886;47.984;-1.586;2022-10-16T12:26:04;19.80;77.40
53978;DHT22;39886;47.984;-1.586;2022-10-16T12:28:32;19.80;77.40
53978;DHT22;39886;47.984;-1.586;2022-10-16T12:33:39;19.80;77.40
53978;DHT22;39886;47.984;-1.586;2022-10-16T12:36:14;19.80;77.40
53978;DHT22;39886;47.984;-1.586;2022-10-16T12:38:48;19.80;77.40
53978;DHT22;39886;47.984;-1.586;2022-10-16T12:41:25;19.80;77.40
53978;DHT22;39886;47.984;-1.586;2022-10-16T12:43:52;19.90;77.50
53978;DHT22;39886;47.984;-1.586;2022-10-16T12:48:44;19.80;77.40
53978;DHT22;39886;47.984;-1.586;2022-10-16T12:51:11;19.80;77.40
53978;DHT22;39886;47.984;-1.586;2022-10-16T12:53:38;19.90;77.40
53978;DHT22;39886;47.984;-1.586;2022-10-16T12:58:59;19.90;77.30
53978;DHT22;39886;47.984;-1.586;2022-10-16T13:10:21;20.00;77.00
53978;DHT22;39886;47.984;-1.586;2022-10-16T13:18:10;20.00;76.80
53978;DHT22;39886;47.984;-1.586;2022-10-16T13:28:35;20.00;76.70
53978;DHT22;39886;47.984;-1.586;2022-10-16T13:31:03;20.10;76.80
53978;DHT22;39886;47.984;-1.586;2022-10-16T13:33:39;20.10;76.70
53978;DHT22;39886;47.984;-1.586;2022-10-16T13:41:44;20.10;76.70
53978;DHT22;39886;47.984;-1.586;2022-10-16T13:44:20;20.10;76.70
53978;DHT22;39886;47.984;-1.586;2022-10-16T13:46:46;20.10;76.70
53978;DHT22;39886;47.984;-1.586;2022-10-16T13:49:15;20.10;76.70
53978;DHT22;39886;47.984;-1.586;2022-10-16T13:51:41;20.10;76.70
53978;DHT22;39886;47.984;-1.586;2022-10-16T13:54:09;20.10;76.60
53978;DHT22;39886;47.984;-1.586;2022-10-16T13:56:38;20.10;76.60
53978;DHT22;39886;47.984;-1.586;2022-10-16T13:59:06;20.20;76.60
53978;DHT22;39886;47.984;-1.586;2022-10-16T14:01:41;20.20;76.60
53978;DHT22;39886;47.984;-1.586;2022-10-16T14:04:10;20.20;76.60
53978;DHT22;39886;47.984;-1.586;2022-10-16T14:06:41;20.20;76.60
53978;DHT22;39886;47.984;-1.586;2022-10-16T14:11:52;20.20;76.50
53978;DHT22;39886;47.984;-1.586;2022-10-16T14:14:19;20.20;76.50
53978;DHT22;39886;47.984;-1.586;2022-10-16T14:16:45;20.20;76.50
53978;DHT22;39886;47.984;-1.586;2022-10-16T14:19:28;20.30;76.50
53978;DHT22;39886;47.984;-1.586;2022-10-16T14:21:56;20.30;76.40
53978;DHT22;39886;47.984;-1.586;2022-10-16T14:26:57;20.30;76.40
53978;DHT22;39886;47.984;-1.586;2022-10-16T14:29:24;20.30;76.50
53978;DHT22;39886;47.984;-1.586;2022-10-16T14:32:00;20.30;76.40
53978;DHT22;39886;47.984;-1.586;2022-10-16T14:34:34;20.30;76.40
53978;DHT22;39886;47.984;-1.586;2022-10-16T14:37:22;20.30;76.40
53978;DHT22;39886;47.984;-1.586;2022-10-16T14:39:50;20.30;76.40
53978;DHT22;39886;47.984;-1.586;2022-10-16T14:42:21;20.30;76.40
53978;DHT22;39886;47.984;-1.586;2022-10-16T14:44:50;20.30;76.40
53978;DHT22;39886;47.984;-1.586;2022-10-16T14:47:20;20.30;76.40
53978;DHT22;39886;47.984;-1.586;2022-10-16T14:49:52;20.30;76.40
53978;DHT22;39886;47.984;-1.586;2022-10-16T14:52:20;20.30;76.30
53978;DHT22;39886;47.984;-1.586;2022-10-16T14:54:49;20.30;76.30
53978;DHT22;39886;47.984;-1.586;2022-10-16T14:57:22;20.30;76.30
53978;DHT22;39886;47.984;-1.586;2022-10-16T14:59:48;20.30;76.40
53978;DHT22;39886;47.984;-1.586;2022-10-16T15:02:29;20.30;76.40
53978;DHT22;39886;47.984;-1.586;2022-10-16T15:04:56;20.40;76.40
53978;DHT22;39886;47.984;-1.586;2022-10-16T15:07:22;20.40;76.40
53978;DHT22;39886;47.984;-1.586;2022-10-16T15:09:48;20.40;76.40
53978;DHT22;39886;47.984;-1.586;2022-10-16T15:12:13;20.40;76.30
53978;DHT22;39886;47.984;-1.586;2022-10-16T15:14:39;20.30;76.30
53978;DHT22;39886;47.984;-1.586;2022-10-16T15:17:05;20.40;76.30
53978;DHT22;39886;47.984;-1.586;2022-10-16T15:19:31;20.40;76.30
53978;DHT22;39886;47.984;-1.586;2022-10-16T15:21:56;20.40;76.30
53978;DHT22;39886;47.984;-1.586;2022-10-16T15:24:22;20.40;76.30
53978;DHT22;39886;47.984;-1.586;2022-10-16T15:26:48;20.40;76.30
53978;DHT22;39886;47.984;-1.586;2022-10-16T15:29:15;20.40;76.30
53978;DHT22;39886;47.984;-1.586;2022-10-16T15:31:41;20.40;76.30
53978;DHT22;39886;47.984;-1.586;2022-10-16T15:34:10;20.40;76.30
53978;DHT22;39886;47.984;-1.586;2022-10-16T15:36:38;20.40;76.30
53978;DHT22;39886;47.984;-1.586;2022-10-16T15:39:14;20.40;76.30
53978;DHT22;39886;47.984;-1.586;2022-10-16T15:41:40;20.40;76.30
53978;DHT22;39886;47.984;-1.586;2022-10-16T15:44:07;20.40;76.30
53978;DHT22;39886;47.984;-1.586;2022-10-16T15:46:33;20.40;76.30
53978;DHT22;39886;47.984;-1.586;2022-10-16T15:49:00;20.40;76.30
53978;DHT22;39886;47.984;-1.586;2022-10-16T15:51:26;20.40;76.30
53978;DHT22;39886;47.984;-1.586;2022-10-16T15:53:58;20.40;76.40
53978;DHT22;39886;47.984;-1.586;2022-10-16T15:56:25;20.40;76.40
53978;DHT22;39886;47.984;-1.586;2022-10-16T15:58:55;20.40;76.40
53978;DHT22;39886;47.984;-1.586;2022-10-16T16:01:21;20.40;76.40
53978;DHT22;39886;47.984;-1.586;2022-10-16T16:03:47;20.40;76.40
53978;DHT22;39886;47.984;-1.586;2022-10-16T16:06:14;20.40;76.40
53978;DHT22;39886;47.984;-1.586;2022-10-16T16:08:41;20.40;77.10
53978;DHT22;39886;47.984;-1.586;2022-10-16T16:11:12;20.40;76.40
53978;DHT22;39886;47.984;-1.586;2022-10-16T16:13:37;20.40;76.50
53978;DHT22;39886;47.984;-1.586;2022-10-16T16:16:08;20.40;76.50
53978;DHT22;39886;47.984;-1.586;2022-10-16T16:18:34;20.40;76.50
53978;DHT22;39886;47.984;-1.586;2022-10-16T16:21:00;20.40;76.60
53978;DHT22;39886;47.984;-1.586;2022-10-16T16:23:26;20.40;76.60
53978;DHT22;39886;47.984;-1.586;2022-10-16T16:28:36;20.40;76.60
53978;DHT22;39886;47.984;-1.586;2022-10-16T16:31:02;20.40;76.60
53978;DHT22;39886;47.984;-1.586;2022-10-16T16:33:28;20.40;76.70
53978;DHT22;39886;47.984;-1.586;2022-10-16T16:35:58;20.40;76.70
53978;DHT22;39886;47.984;-1.586;2022-10-16T16:38:24;20.40;76.80
53978;DHT22;39886;47.984;-1.586;2022-10-16T16:40:50;20.40;76.80
53978;DHT22;39886;47.984;-1.586;2022-10-16T16:43:17;20.40;76.80
53978;DHT22;39886;47.984;-1.586;2022-10-16T16:45:43;20.40;76.80
53978;DHT22;39886;47.984;-1.586;2022-10-16T16:48:09;20.40;76.90
53978;DHT22;39886;47.984;-1.586;2022-10-16T16:50:35;20.40;76.90
53978;DHT22;39886;47.984;-1.586;2022-10-16T16:53:01;20.40;76.90
53978;DHT22;39886;47.984;-1.586;2022-10-16T16:55:27;20.40;76.90
53978;DHT22;39886;47.984;-1.586;2022-10-16T16:57:53;20.40;76.90
53978;DHT22;39886;47.984;-1.586;2022-10-16T17:00:19;20.40;76.90
53978;DHT22;39886;47.984;-1.586;2022-10-16T17:02:48;20.40;77.00
53978;DHT22;39886;47.984;-1.586;2022-10-16T17:05:14;20.40;77.00
53978;DHT22;39886;47.984;-1.586;2022-10-16T17:07:40;20.40;77.00
53978;DHT22;39886;47.984;-1.586;2022-10-16T17:10:07;20.40;77.00
53978;DHT22;39886;47.984;-1.586;2022-10-16T17:12:33;20.40;77.00
53978;DHT22;39886;47.984;-1.586;2022-10-16T17:14:59;20.40;77.10
53978;DHT22;39886;47.984;-1.586;2022-10-16T17:17:24;20.30;77.00
53978;DHT22;39886;47.984;-1.586;2022-10-16T17:19:51;20.30;77.00
53978;DHT22;39886;47.984;-1.586;2022-10-16T17:22:18;20.30;77.10
53978;DHT22;39886;47.984;-1.586;2022-10-16T17:24:43;20.30;77.10
53978;DHT22;39886;47.984;-1.586;2022-10-16T17:27:10;20.30;77.10
53978;DHT22;39886;47.984;-1.586;2022-10-16T17:29:37;20.30;77.20
53978;DHT22;39886;47.984;-1.586;2022-10-16T17:32:03;20.30;77.20
53978;DHT22;39886;47.984;-1.586;2022-10-16T17:34:29;20.30;77.20
53978;DHT22;39886;47.984;-1.586;2022-10-16T17:36:54;20.30;77.20
53978;DHT22;39886;47.984;-1.586;2022-10-16T17:39:20;20.30;77.20
53978;DHT22;39886;47.984;-1.586;2022-10-16T17:41:47;20.30;77.20
53978;DHT22;39886;47.984;-1.586;2022-10-16T17:44:14;20.30;77.20
53978;DHT22;39886;47.984;-1.586;2022-10-16T17:46:51;20.30;77.20
53978;DHT22;39886;47.984;-1.586;2022-10-16T17:49:17;20.30;77.30